Time;durP1;ratioP1;P1;durP2;ratioP2;P2;SDS_P1;SDS_P2;PMS_P1;PMS_P2;Temp;Humidity;BMP_temperature;BMP_pressure;BME280_temperature;BME280_humidity;BME280_pressure;Samples;Min_cycle;Max_cycle;Signal;HPM_P1;HPM_P2
2021/06/21 00:01:21;;;;;;;12.45;11.25;;;26.80;99.90;;;;;;5074924;28;20186;-63
2021/06/21 00:03:48;;;;;;;11.93;10.82;;;26.70;99.90;;;;;;5075976;28;20166;-62
2021/06/21 00:06:14;;;;;;;11.07;10.07;;;26.60;99.90;;;;;;5076039;28;20197;-63
2021/06/21 00:08:39;;;;;;;12.07;10.80;;;26.50;99.90;;;;;;5075788;28;20558;-63
2021/06/21 00:11:05;;;;;;;12.25;11.13;;;26.10;99.90;;;;;;5075670;28;20177;-53
2021/06/21 00:13:30;;;;;;;12.15;11.05;;;25.80;99.90;;;;;;5074784;28;20654;-62
2021/06/21 00:15:56;;;;;;;11.93;10.82;;;25.50;99.90;;;;;;5075715;28;20244;-58
2021/06/21 00:18:21;;;;;;;12.02;10.93;;;25.30;99.90;;;;;;5074803;28;20202;-53
2021/06/21 00:20:49;;;;;;;12.90;11.70;;;25.20;99.90;;;;;;5076005;28;20174;-61
2021/06/21 00:23:14;;;;;;;12.82;11.73;;;25.00;99.90;;;;;;5075562;28;20174;-63
2021/06/21 00:25:40;;;;;;;12.30;11.20;;;25.00;99.90;;;;;;5074409;28;20218;-63
2021/06/21 00:28:05;;;;;;;12.63;11.52;;;25.00;99.90;;;;;;5075135;28;20191;-56
2021/06/21 00:30:31;;;;;;;12.65;11.45;;;25.10;99.90;;;;;;5073709;28;20622;-56
2021/06/21 00:32:57;;;;;;;14.02;12.82;;;25.20;99.90;;;;;;5074296;28;20226;-63
2021/06/21 00:35:23;;;;;;;14.18;12.20;;;25.20;99.90;;;;;;5075371;28;20224;-63
2021/06/21 00:37:49;;;;;;;14.35;12.98;;;25.10;99.90;;;;;;5074310;28;20198;-63
2021/06/21 00:40:15;;;;;;;14.50;13.10;;;24.80;99.90;;;;;;5075345;28;20174;-63
2021/06/21 00:42:44;;;;;;;14.32;12.88;;;24.90;99.90;;;;;;5074091;28;20642;-63
2021/06/21 00:45:11;;;;;;;14.70;13.27;;;24.90;99.90;;;;;;5075634;28;20220;-54
2021/06/21 00:47:37;;;;;;;13.98;12.82;;;24.80;99.90;;;;;;5075187;28;20213;-63
2021/06/21 00:50:03;;;;;;;14.55;13.18;;;24.80;99.90;;;;;;5074053;28;20183;-63
2021/06/21 00:52:28;;;;;;;15.18;13.68;;;24.90;99.90;;;;;;5074950;28;20511;-58
2021/06/21 00:55:01;;;;;;;13.98;12.65;;;25.00;99.90;;;;;;5075328;28;20646;-63
2021/06/21 00:57:29;;;;;;;13.40;12.30;;;25.00;99.90;;;;;;5073877;28;20190;-63
2021/06/21 00:59:58;;;;;;;14.70;13.23;;;25.00;99.90;;;;;;5075011;28;20178;-57
2021/06/21 01:02:25;;;;;;;14.27;12.95;;;25.10;99.90;;;;;;5073592;28;20182;-63
2021/06/21 01:04:50;;;;;;;14.15;12.77;;;25.00;99.90;;;;;;5075130;28;20216;-55
2021/06/21 01:07:16;;;;;;;12.90;11.80;;;25.00;99.90;;;;;;5073842;28;20202;-56
2021/06/21 01:09:42;;;;;;;14.30;13.00;;;25.10;99.90;;;;;;5074558;28;20209;-62
2021/06/21 01:12:16;;;;;;;14.23;12.98;;;25.20;99.90;;;;;;5074327;28;20250;-59
2021/06/21 01:14:49;;;;;;;14.15;12.95;;;25.40;99.90;;;;;;5074702;28;20155;-63
2021/06/21 01:17:24;;;;;;;14.27;13.00;;;25.50;99.90;;;;;;5074503;28;20213;-63
2021/06/21 01:20:28;;;;;;;14.32;13.02;;;25.20;99.90;;;;;;5074777;28;20170;-63
2021/06/21 01:23:11;;;;;;;14.00;12.50;;;24.80;99.90;;;;;;5050988;28;20182;-54
2021/06/21 01:25:42;;;;;;;13.07;11.93;;;24.30;99.90;;;;;;5074454;28;20202;-63
2021/06/21 01:28:30;;;;;;;12.50;11.30;;;24.00;99.90;;;;;;5074300;28;20186;-63
2021/06/21 01:31:15;;;;;;;13.35;11.23;;;23.90;99.90;;;;;;5074907;28;20162;-61
2021/06/21 01:33:41;;;;;;;12.68;10.60;;;23.90;99.90;;;;;;5073368;28;20187;-59
2021/06/21 01:36:09;;;;;;;11.68;10.15;;;23.80;99.90;;;;;;5074326;28;20186;-56
2021/06/21 01:38:43;;;;;;;13.32;10.38;;;23.80;99.90;;;;;;5074554;28;20214;-63
2021/06/21 01:41:18;;;;;;;14.20;10.00;;;23.80;99.90;;;;;;5073148;28;20163;-61
2021/06/21 01:43:46;;;;;;;13.82;9.80;;;23.90;99.90;;;;;;5074193;28;20530;-57
2021/06/21 01:46:15;;;;;;;12.85;9.93;;;23.70;99.90;;;;;;5072988;28;20237;-58
2021/06/21 01:48:45;;;;;;;14.77;9.13;;;23.70;99.90;;;;;;5072971;28;20170;-57
2021/06/21 01:51:12;;;;;;;16.85;8.85;;;23.60;99.90;;;;;;5073951;28;20189;-62
2021/06/21 01:53:39;;;;;;;15.18;9.48;;;23.50;99.90;;;;;;5074017;28;20166;-55
2021/06/21 01:56:10;;;;;;;14.43;9.07;;;23.50;99.90;;;;;;5074062;28;20174;-55
2021/06/21 01:58:37;;;;;;;13.75;8.90;;;23.40;99.90;;;;;;5074036;28;20231;-57
2021/06/21 02:01:06;;;;;;;13.70;8.30;;;23.30;99.90;;;;;;5074020;28;20190;-63
2021/06/21 02:03:34;;;;;;;17.25;8.35;;;23.30;99.90;;;;;;5073979;28;20298;-56
2021/06/21 02:06:02;;;;;;;17.10;7.93;;;23.30;99.90;;;;;;5072887;28;20217;-63
2021/06/21 02:08:28;;;;;;;13.63;7.28;;;23.30;99.90;;;;;;5073772;28;20197;-63
2021/06/21 02:10:54;;;;;;;12.63;7.13;;;23.20;99.90;;;;;;5073800;28;20197;-53
2021/06/21 02:13:22;;;;;;;12.57;7.00;;;23.20;99.90;;;;;;5073141;28;20163;-53
2021/06/21 02:15:49;;;;;;;13.35;7.00;;;23.30;99.90;;;;;;5073790;28;20577;-63
2021/06/21 02:18:19;;;;;;;14.90;6.97;;;23.40;99.90;;;;;;5073734;28;20190;-62
2021/06/21 02:20:45;;;;;;;14.18;7.00;;;23.30;99.90;;;;;;5073894;28;20276;-57
2021/06/21 02:23:11;;;;;;;15.73;6.70;;;23.20;99.90;;;;;;5072736;28;20189;-59
2021/06/21 02:25:38;;;;;;;14.23;6.55;;;23.00;99.90;;;;;;5073802;28;20641;-64
2021/06/21 02:28:04;;;;;;;14.50;6.45;;;22.90;99.90;;;;;;5072939;28;20201;-55
2021/06/21 02:30:31;;;;;;;17.38;6.47;;;22.80;99.90;;;;;;5073508;28;20182;-63
2021/06/21 02:32:57;;;;;;;10.82;6.13;;;22.70;99.90;;;;;;5073435;28;20233;-55
2021/06/21 02:35:22;;;;;;;18.38;6.43;;;22.60;99.90;;;;;;5072584;28;20229;-59
2021/06/21 02:37:48;;;;;;;11.93;5.85;;;22.50;99.90;;;;;;5073033;28;20211;-55
2021/06/21 02:40:15;;;;;;;14.30;6.75;;;22.40;99.90;;;;;;5072735;28;20185;-63
2021/06/21 02:42:41;;;;;;;17.98;6.00;;;22.30;99.90;;;;;;5073121;28;20169;-63
2021/06/21 02:45:07;;;;;;;12.45;5.65;;;22.30;99.90;;;;;;5073937;28;20192;-63
2021/06/21 02:47:34;;;;;;;18.75;5.97;;;22.30;99.90;;;;;;5072313;28;20229;-57
2021/06/21 02:50:00;;;;;;;10.13;5.43;;;22.20;99.90;;;;;;5073460;28;20273;-63
2021/06/21 02:52:35;;;;;;;11.55;5.53;;;22.30;99.90;;;;;;5072570;28;20844;-63
2021/06/21 02:55:08;;;;;;;14.45;6.15;;;22.30;99.90;;;;;;5077874;28;20484;-59
2021/06/21 02:57:45;;;;;;;16.38;5.80;;;22.30;99.90;;;;;;5077286;28;20191;-63
2021/06/21 03:00:11;;;;;;;14.98;5.70;;;22.20;99.90;;;;;;5077241;28;20180;-63
2021/06/21 03:02:39;;;;;;;10.82;5.82;;;22.20;99.90;;;;;;5076941;28;20594;-63
2021/06/21 03:05:06;;;;;;;12.98;6.32;;;22.20;99.90;;;;;;5077174;28;20167;-58
2021/06/21 03:07:33;;;;;;;14.95;5.88;;;22.20;99.90;;;;;;5075726;28;20222;-55
2021/06/21 03:09:59;;;;;;;18.85;5.90;;;22.10;99.90;;;;;;5077026;28;20181;-53
2021/06/21 03:12:28;;;;;;;14.10;5.78;;;22.00;99.90;;;;;;5076235;28;20179;-62
2021/06/21 03:14:53;;;;;;;17.23;5.43;;;22.00;99.90;;;;;;5076886;28;20176;-62
2021/06/21 03:17:20;;;;;;;11.73;5.80;;;22.00;99.90;;;;;;5076793;28;20585;-63
2021/06/21 03:19:47;;;;;;;11.73;5.03;;;22.00;99.90;;;;;;5076801;28;20164;-63
2021/06/21 03:22:13;;;;;;;12.13;4.70;;;22.10;99.90;;;;;;5075707;28;20192;-63
2021/06/21 03:24:39;;;;;;;9.80;4.75;;;22.20;99.90;;;;;;5077144;28;20254;-53
2021/06/21 03:27:06;;;;;;;12.60;4.70;;;22.30;99.90;;;;;;5076710;28;20301;-63
2021/06/21 03:29:32;;;;;;;11.75;4.95;;;22.20;99.90;;;;;;5075484;28;20703;-56
2021/06/21 03:32:24;;;;;;;11.40;4.63;;;22.10;99.90;;;;;;5076945;28;20175;-63
2021/06/21 03:34:50;;;;;;;11.15;5.03;;;22.20;99.90;;;;;;5076610;28;20156;-63
2021/06/21 03:37:16;;;;;;;10.68;4.75;;;22.20;99.90;;;;;;5076527;28;20215;-54
2021/06/21 03:39:41;;;;;;;9.90;5.07;;;22.10;99.90;;;;;;5076715;28;20247;-55
2021/06/21 03:42:07;;;;;;;14.85;5.10;;;22.10;99.90;;;;;;5076106;28;20233;-63
2021/06/21 03:44:32;;;;;;;11.13;4.82;;;22.20;99.90;;;;;;5076221;28;20253;-53
2021/06/21 03:46:58;;;;;;;12.23;4.80;;;22.10;99.90;;;;;;5075872;28;20259;-63
2021/06/21 03:49:23;;;;;;;8.13;5.00;;;22.10;99.90;;;;;;5076255;28;20233;-55
2021/06/21 03:51:49;;;;;;;12.65;5.00;;;22.10;99.90;;;;;;5075497;28;20174;-63
2021/06/21 03:54:14;;;;;;;9.95;4.78;;;22.10;99.90;;;;;;5076258;28;20561;-63
2021/06/21 03:56:40;;;;;;;10.35;4.85;;;22.10;99.90;;;;;;5075507;28;20719;-56
2021/06/21 03:59:05;;;;;;;14.10;4.78;;;22.20;99.90;;;;;;5076103;28;20172;-62
2021/06/21 04:01:31;;;;;;;14.20;5.03;;;22.20;99.90;;;;;;5075935;28;20639;-54
2021/06/21 04:03:59;;;;;;;16.35;5.07;;;22.50;99.90;;;;;;5074671;28;20689;-58
2021/06/21 04:06:24;;;;;;;13.18;4.45;;;22.00;99.90;;;;;;5075642;28;20515;-63
2021/06/21 04:08:50;;;;;;;11.45;5.10;;;22.00;99.90;;;;;;5075737;28;20657;-62
2021/06/21 04:11:16;;;;;;;11.02;4.75;;;21.80;99.90;;;;;;5075660;28;20646;-62
2021/06/21 04:13:41;;;;;;;9.77;5.50;;;21.70;99.90;;;;;;5074723;28;20514;-63
2021/06/21 04:16:07;;;;;;;12.85;5.70;;;21.70;99.90;;;;;;5075811;28;20193;-57
2021/06/21 04:18:32;;;;;;;9.37;5.03;;;21.70;99.90;;;;;;5075630;28;20197;-58
2021/06/21 04:20:58;;;;;;;14.82;5.68;;;21.60;99.90;;;;;;5075637;28;20630;-63
2021/06/21 04:23:24;;;;;;;11.23;5.37;;;21.60;99.90;;;;;;5075814;28;20179;-58
2021/06/21 04:25:49;;;;;;;10.05;4.78;;;21.60;99.90;;;;;;5074566;28;20217;-63
2021/06/21 04:28:15;;;;;;;15.90;5.33;;;21.50;99.90;;;;;;5075480;28;20196;-55
2021/06/21 04:30:44;;;;;;;17.00;5.23;;;21.60;99.90;;;;;;5074263;28;20246;-62
2021/06/21 04:33:09;;;;;;;11.70;5.20;;;21.60;99.90;;;;;;5075530;28;20631;-54
2021/06/21 04:35:35;;;;;;;14.00;5.18;;;21.60;99.90;;;;;;5076607;28;20171;-58
2021/06/21 04:38:01;;;;;;;11.73;5.00;;;21.70;99.90;;;;;;5074223;28;20231;-63
2021/06/21 04:40:30;;;;;;;11.18;4.75;;;21.70;99.90;;;;;;5075349;28;20247;-56
2021/06/21 04:42:56;;;;;;;12.15;4.82;;;21.80;99.90;;;;;;5074133;28;20164;-58
2021/06/21 04:45:22;;;;;;;12.20;5.18;;;21.80;99.90;;;;;;5075016;28;20176;-53
2021/06/21 04:47:48;;;;;;;11.15;4.85;;;21.70;99.90;;;;;;5075249;28;20202;-63
2021/06/21 04:50:16;;;;;;;10.48;4.60;;;22.30;99.90;;;;;;5075049;28;20163;-63
2021/06/21 04:52:43;;;;;;;11.57;5.05;;;21.70;99.90;;;;;;5075086;28;20199;-53
2021/06/21 04:55:11;;;;;;;19.92;4.60;;;21.80;99.90;;;;;;5074761;28;20640;-58
2021/06/21 04:57:37;;;;;;;8.43;4.50;;;21.90;99.90;;;;;;5074358;28;20199;-59
2021/06/21 05:00:06;;;;;;;11.07;4.53;;;21.90;99.90;;;;;;5074364;28;20175;-53
2021/06/21 05:02:31;;;;;;;9.95;4.70;;;21.90;99.90;;;;;;5075026;28;20305;-58
2021/06/21 05:04:57;;;;;;;10.38;4.28;;;21.90;99.90;;;;;;5075412;28;20253;-56
2021/06/21 05:07:23;;;;;;;8.65;4.53;;;21.90;99.90;;;;;;5074843;28;20212;-54
2021/06/21 05:09:48;;;;;;;8.88;4.38;;;21.90;99.90;;;;;;5075456;28;20168;-56
2021/06/21 05:12:14;;;;;;;13.68;4.75;;;21.90;99.90;;;;;;5073492;28;20570;-63
2021/06/21 05:14:40;;;;;;;7.72;4.10;;;22.00;99.90;;;;;;5074401;28;20164;-60
2021/06/21 05:17:07;;;;;;;9.30;4.45;;;22.00;99.90;;;;;;5074273;28;20280;-63
2021/06/21 05:19:34;;;;;;;10.15;4.93;;;22.00;99.90;;;;;;5073356;28;20512;-63
2021/06/21 05:21:59;;;;;;;9.07;3.85;;;22.00;99.90;;;;;;5074320;28;20176;-56
2021/06/21 05:24:25;;;;;;;12.52;4.68;;;22.10;99.90;;;;;;5073410;28;20197;-55
2021/06/21 05:26:50;;;;;;;11.15;4.55;;;22.20;99.90;;;;;;5074472;28;20260;-63
2021/06/21 05:29:16;;;;;;;11.73;4.60;;;22.30;99.90;;;;;;5074102;28;20176;-62
2021/06/21 05:31:41;;;;;;;8.85;4.00;;;22.20;99.90;;;;;;5073339;28;20181;-63
2021/06/21 05:34:07;;;;;;;9.77;4.03;;;22.30;99.90;;;;;;5074782;28;20170;-63
2021/06/21 05:36:32;;;;;;;13.85;4.68;;;22.30;99.90;;;;;;5074765;28;20182;-59
2021/06/21 05:38:58;;;;;;;11.50;4.22;;;22.20;99.90;;;;;;5074282;28;20618;-62
2021/06/21 05:41:23;;;;;;;10.52;4.03;;;22.20;99.90;;;;;;5074017;28;20176;-55
2021/06/21 05:43:49;;;;;;;9.82;4.22;;;22.30;99.90;;;;;;5073848;28;20215;-61
2021/06/21 05:46:15;;;;;;;9.23;4.30;;;22.20;99.90;;;;;;5074020;28;20247;-64
2021/06/21 05:48:40;;;;;;;10.25;3.85;;;22.20;99.90;;;;;;5072915;28;20175;-59
2021/06/21 05:51:05;;;;;;;8.20;4.05;;;22.20;99.90;;;;;;5074501;28;20174;-60
2021/06/21 05:53:31;;;;;;;11.82;4.03;;;22.40;99.90;;;;;;5074617;28;20538;-61
2021/06/21 05:55:58;;;;;;;9.57;3.78;;;22.20;99.90;;;;;;5072972;28;20188;-56
2021/06/21 05:58:24;;;;;;;12.18;4.00;;;22.30;99.90;;;;;;5073975;28;20190;-64
2021/06/21 06:00:49;;;;;;;7.28;3.38;;;22.30;99.90;;;;;;5074241;28;20181;-58
2021/06/21 06:03:15;;;;;;;8.48;3.80;;;22.20;99.90;;;;;;5073244;28;20184;-63
2021/06/21 06:05:40;;;;;;;9.52;3.92;;;22.20;99.90;;;;;;5073139;28;20205;-62
2021/06/21 06:08:06;;;;;;;9.85;3.90;;;22.10;99.90;;;;;;5073041;28;20201;-58
2021/06/21 06:10:32;;;;;;;8.60;3.60;;;22.10;99.90;;;;;;5073266;28;20252;-63
2021/06/21 06:12:58;;;;;;;11.82;4.15;;;22.10;99.90;;;;;;5072583;28;20506;-57
2021/06/21 06:15:23;;;;;;;6.18;3.42;;;22.00;99.90;;;;;;5073722;28;20185;-63
2021/06/21 06:17:49;;;;;;;7.65;3.67;;;22.10;99.90;;;;;;5073969;28;20248;-64
2021/06/21 06:20:15;;;;;;;12.32;4.15;;;22.30;99.90;;;;;;5073930;28;20233;-62
2021/06/21 06:22:41;;;;;;;13.32;4.30;;;22.30;99.90;;;;;;5073500;28;20634;-59
2021/06/21 06:25:07;;;;;;;8.88;3.65;;;22.20;99.90;;;;;;5073922;28;20174;-63
2021/06/21 06:27:33;;;;;;;6.90;3.50;;;22.20;99.90;;;;;;5072634;28;20229;-53
2021/06/21 06:29:58;;;;;;;8.48;4.00;;;22.30;99.90;;;;;;5077669;28;20184;-64
2021/06/21 06:32:24;;;;;;;7.13;3.70;;;22.40;99.90;;;;;;5077282;28;20188;-55
2021/06/21 06:34:49;;;;;;;6.75;3.63;;;22.50;99.90;;;;;;5079011;28;20184;-59
2021/06/21 06:37:15;;;;;;;11.23;3.97;;;22.50;99.90;;;;;;5076867;28;20287;-54
2021/06/21 06:39:40;;;;;;;6.32;3.65;;;22.50;99.90;;;;;;5077682;28;20220;-63
2021/06/21 06:42:06;;;;;;;6.95;4.25;;;22.70;99.90;;;;;;5077529;28;20163;-62
2021/06/21 06:44:32;;;;;;;6.65;3.70;;;23.00;99.90;;;;;;5077971;28;20628;-63
2021/06/21 06:46:58;;;;;;;6.63;3.50;;;23.10;99.90;;;;;;5077036;28;20226;-61
2021/06/21 06:49:23;;;;;;;16.63;3.97;;;22.90;99.90;;;;;;5077383;28;20183;-56
2021/06/21 06:51:54;;;;;;;8.40;3.67;;;22.80;99.90;;;;;;5077849;28;20167;-56
2021/06/21 06:54:22;;;;;;;8.00;3.50;;;23.20;99.90;;;;;;5076869;28;20232;-60
2021/06/21 06:57:01;;;;;;;6.10;3.40;;;22.80;99.90;;;;;;5077241;28;20179;-64
2021/06/21 06:59:31;;;;;;;8.38;3.30;;;23.00;99.90;;;;;;5076135;28;20193;-63
2021/06/21 07:01:58;;;;;;;6.85;3.25;;;23.30;99.90;;;;;;5077074;28;20232;-62
2021/06/21 07:04:25;;;;;;;8.65;4.00;;;23.40;99.90;;;;;;5076487;28;20257;-63
2021/06/21 07:06:51;;;;;;;6.20;3.50;;;23.40;99.90;;;;;;5076859;28;20256;-58
2021/06/21 07:09:17;;;;;;;10.93;3.95;;;23.20;99.90;;;;;;5077368;28;20171;-62
2021/06/21 07:11:43;;;;;;;7.97;3.45;;;23.10;99.90;;;;;;5076927;28;20167;-59
2021/06/21 07:14:09;;;;;;;6.25;3.53;;;22.90;99.90;;;;;;5075783;28;20187;-59
2021/06/21 07:16:35;;;;;;;9.05;3.55;;;22.90;99.90;;;;;;5077042;28;20166;-63
2021/06/21 07:19:01;;;;;;;8.75;3.60;;;23.00;99.90;;;;;;5075514;28;20190;-62
2021/06/21 07:21:26;;;;;;;8.23;3.60;;;23.20;99.90;;;;;;5075919;28;20178;-62
2021/06/21 07:23:52;;;;;;;5.45;3.08;;;23.30;99.90;;;;;;5076743;28;20538;-56
2021/06/21 07:26:19;;;;;;;8.73;3.38;;;23.40;99.90;;;;;;5077173;28;20209;-63
2021/06/21 07:28:45;;;;;;;11.48;3.42;;;23.50;99.90;;;;;;5076696;28;20626;-63
2021/06/21 07:31:11;;;;;;;9.27;3.20;;;23.50;99.90;;;;;;5075454;28;20190;-64
2021/06/21 07:33:36;;;;;;;5.80;3.20;;;23.40;99.90;;;;;;5077208;28;20182;-54
2021/06/21 07:36:03;;;;;;;9.48;3.35;;;23.30;99.90;;;;;;5075634;28;20182;-58
2021/06/21 07:38:28;;;;;;;6.70;3.10;;;23.40;99.90;;;;;;5076463;28;20210;-55
2021/06/21 07:40:54;;;;;;;10.15;3.60;;;23.40;99.90;;;;;;5076794;28;20224;-62
2021/06/21 07:43:20;;;;;;;8.40;3.60;;;23.50;99.90;;;;;;5076638;28;20178;-57
2021/06/21 07:45:47;;;;;;;11.50;3.90;;;23.60;99.90;;;;;;5075134;28;20225;-61
2021/06/21 07:48:13;;;;;;;9.93;3.20;;;23.70;99.90;;;;;;5076351;28;20186;-61
2021/06/21 07:50:38;;;;;;;7.35;3.10;;;23.70;99.90;;;;;;5076517;28;20171;-63
2021/06/21 07:53:06;;;;;;;10.48;3.55;;;23.70;99.90;;;;;;5075507;28;20254;-58
2021/06/21 07:55:32;;;;;;;10.10;3.95;;;23.70;99.90;;;;;;5076454;28;20333;-59
2021/06/21 07:57:58;;;;;;;10.23;3.45;;;23.50;99.90;;;;;;5074907;28;20221;-61
2021/06/21 08:00:25;;;;;;;6.63;3.20;;;23.50;99.90;;;;;;5077763;28;20167;-58
2021/06/21 08:02:52;;;;;;;7.70;2.97;;;23.70;99.90;;;;;;5074862;28;20191;-60
2021/06/21 08:05:18;;;;;;;6.63;3.22;;;23.80;99.90;;;;;;5076569;28;20167;-58
2021/06/21 08:07:44;;;;;;;11.98;3.78;;;23.90;99.90;;;;;;5074868;28;20213;-63
2021/06/21 08:10:10;;;;;;;7.53;2.78;;;24.00;99.90;;;;;;5075648;28;20163;-64
2021/06/21 08:12:36;;;;;;;11.60;3.05;;;23.80;99.90;;;;;;5075746;28;20695;-58
2021/06/21 08:15:03;;;;;;;10.80;2.90;;;23.70;99.90;;;;;;5074958;28;20753;-55
2021/06/21 08:17:28;;;;;;;8.35;2.88;;;23.70;99.90;;;;;;5078101;28;20283;-64
2021/06/21 08:19:54;;;;;;;7.60;3.30;;;23.80;99.90;;;;;;5075947;28;20261;-64
2021/06/21 08:22:22;;;;;;;7.93;3.08;;;23.70;99.90;;;;;;5075104;28;20253;-64
2021/06/21 08:24:49;;;;;;;7.72;3.20;;;23.80;99.90;;;;;;5075512;28;20732;-64
2021/06/21 08:27:15;;;;;;;7.85;3.13;;;23.80;99.90;;;;;;5074660;28;20297;-59
2021/06/21 08:29:41;;;;;;;7.15;2.85;;;23.90;99.90;;;;;;5075495;28;20255;-56
2021/06/21 08:32:07;;;;;;;10.70;3.50;;;24.20;99.90;;;;;;5073279;28;20181;-63
2021/06/21 08:34:33;;;;;;;8.65;3.10;;;24.30;99.90;;;;;;5076961;28;20167;-56
2021/06/21 08:36:58;;;;;;;9.68;2.78;;;24.30;99.90;;;;;;5075576;28;20210;-63
2021/06/21 08:39:24;;;;;;;6.85;3.08;;;24.40;99.90;;;;;;5075607;28;20186;-58
2021/06/21 08:41:50;;;;;;;6.32;2.95;;;24.60;99.90;;;;;;5074065;28;20642;-64
2021/06/21 08:44:15;;;;;;;7.15;2.88;;;24.50;99.90;;;;;;5075323;28;20171;-54
2021/06/21 08:46:42;;;;;;;7.55;2.75;;;24.60;99.90;;;;;;5073858;28;20210;-56
2021/06/21 08:49:09;;;;;;;7.53;2.90;;;24.70;99.90;;;;;;5074660;28;20159;-64
2021/06/21 08:51:36;;;;;;;8.48;3.13;;;24.90;99.90;;;;;;5075884;28;20175;-63
2021/06/21 08:54:03;;;;;;;9.48;2.80;;;24.80;99.90;;;;;;5074182;28;20198;-59
2021/06/21 08:56:28;;;;;;;8.23;3.15;;;24.70;99.90;;;;;;5074990;28;20175;-64
2021/06/21 08:58:54;;;;;;;11.70;3.45;;;24.70;99.90;;;;;;5074517;28;20194;-63
2021/06/21 09:01:20;;;;;;;7.00;2.88;;;24.70;99.90;;;;;;5074242;28;20171;-56
2021/06/21 09:03:47;;;;;;;9.57;3.20;;;24.80;99.90;;;;;;5074904;28;20174;-57
2021/06/21 09:06:23;;;;;;;6.78;3.05;;;24.80;99.90;;;;;;5073903;28;20285;-54
2021/06/21 09:08:58;;;;;;;9.10;3.30;;;25.00;99.90;;;;;;5076164;28;20530;-63
2021/06/21 09:11:46;;;;;;;9.80;2.85;;;25.20;99.90;;;;;;5073881;28;20199;-64
2021/06/21 09:14:29;;;;;;;8.60;2.80;;;25.00;99.90;;;;;;5074827;28;20215;-64
2021/06/21 09:16:59;;;;;;;7.60;2.83;;;25.10;99.90;;;;;;5075277;28;20670;-59
2021/06/21 09:19:25;;;;;;;9.13;2.70;;;25.00;99.90;;;;;;5074744;28;20194;-64
2021/06/21 09:21:52;;;;;;;10.43;2.67;;;25.00;99.90;;;;;;5074232;28;20190;-62
2021/06/21 09:24:24;;;;;;;6.55;2.78;;;25.10;99.90;;;;;;5074612;28;20212;-63
2021/06/21 09:26:57;;;;;;;6.45;2.70;;;25.20;99.90;;;;;;5075094;28;20283;-63
2021/06/21 09:29:40;;;;;;;8.48;2.38;;;25.50;99.90;;;;;;5073707;28;20507;-60
2021/06/21 09:32:07;;;;;;;7.43;2.92;;;25.60;99.90;;;;;;5074269;28;20236;-60
2021/06/21 09:34:32;;;;;;;12.15;2.40;;;25.60;99.90;;;;;;5074693;28;20167;-58
2021/06/21 09:37:18;;;;;;;7.07;2.55;;;25.60;99.90;;;;;;5074279;28;20251;-63
2021/06/21 09:39:49;;;;;;;8.70;2.45;;;25.70;99.90;;;;;;5075821;28;20186;-64
2021/06/21 09:42:20;;;;;;;8.55;2.33;;;25.60;99.90;;;;;;5073399;28;20190;-60
2021/06/21 09:44:54;;;;;;;6.97;2.50;;;25.80;99.90;;;;;;5074296;28;20182;-64
2021/06/21 09:47:30;;;;;;;8.63;2.20;;;26.00;99.90;;;;;;5074218;28;20298;-63
2021/06/21 09:50:09;;;;;;;7.05;2.17;;;26.10;99.90;;;;;;5073665;28;20173;-63
2021/06/21 09:52:41;;;;;;;8.77;2.70;;;26.20;99.90;;;;;;5075339;28;20220;-64
2021/06/21 09:55:29;;;;;;;5.40;2.13;;;26.30;99.90;;;;;;5073164;28;20218;-56
2021/06/21 09:58:08;;;;;;;9.38;2.53;;;26.30;99.90;;;;;;5073775;28;20202;-62
2021/06/21 10:00:40;;;;;;;7.57;2.10;;;26.40;99.90;;;;;;5073223;28;20171;-62
2021/06/21 10:03:20;;;;;;;5.88;2.35;;;26.50;99.90;;;;;;5073588;28;20182;-63
2021/06/21 10:06:10;;;;;;;7.72;2.50;;;26.60;99.90;;;;;;5074260;28;20178;-56
2021/06/21 10:08:43;;;;;;;6.85;2.40;;;26.50;99.90;;;;;;5075912;28;20194;-61
2021/06/21 10:11:32;;;;;;;9.57;2.90;;;26.50;99.90;;;;;;5074164;28;20212;-63
2021/06/21 10:13:59;;;;;;;7.20;2.45;;;26.70;99.90;;;;;;5072948;28;20174;-60
2021/06/21 10:16:25;;;;;;;7.13;2.17;;;26.80;99.90;;;;;;5074023;28;20178;-62
2021/06/21 10:18:51;;;;;;;4.82;2.15;;;27.10;99.90;;;;;;5073035;28;20200;-57
2021/06/21 10:21:17;;;;;;;8.52;2.60;;;27.20;99.90;;;;;;5073708;28;20257;-59
2021/06/21 10:23:42;;;;;;;7.78;2.38;;;27.30;99.90;;;;;;5073825;28;20210;-63
2021/06/21 10:26:09;;;;;;;7.25;2.38;;;27.80;99.90;;;;;;5075126;28;20252;-63
2021/06/21 10:28:35;;;;;;;5.13;2.05;;;27.80;99.90;;;;;;5073619;28;20198;-59
2021/06/21 10:31:02;;;;;;;8.85;2.38;;;28.00;99.90;;;;;;5072328;28;20167;-62
2021/06/21 10:33:30;;;;;;;10.32;2.42;;;28.10;99.90;;;;;;5073831;28;20174;-56
2021/06/21 10:35:59;;;;;;;6.97;2.15;;;28.10;99.90;;;;;;5072606;28;20273;-63
2021/06/21 10:38:25;;;;;;;14.27;2.55;;;28.20;99.90;;;;;;5073884;28;20229;-63
2021/06/21 10:40:59;;;;;;;8.07;2.22;;;28.20;99.90;;;;;;5074212;28;20174;-60
2021/06/21 10:43:49;;;;;;;7.90;2.10;;;28.20;99.90;;;;;;5072929;28;20178;-57
2021/06/21 10:46:18;;;;;;;8.43;2.42;;;28.60;99.90;;;;;;5073997;28;20574;-55
2021/06/21 10:49:07;;;;;;;10.80;2.63;;;28.40;99.90;;;;;;5076420;28;20163;-63
2021/06/21 10:51:39;;;;;;;9.43;2.33;;;28.20;99.90;;;;;;5072315;28;20199;-58
2021/06/21 10:54:07;;;;;;;8.70;2.45;;;28.30;99.90;;;;;;5074028;28;20217;-63
2021/06/21 10:56:56;;;;;;;9.00;2.15;;;28.10;99.90;;;;;;5075670;28;20634;-59
2021/06/21 10:59:24;;;;;;;7.75;2.70;;;28.20;99.90;;;;;;5073425;28;20236;-64
2021/06/21 11:01:58;;;;;;;9.93;2.75;;;28.20;99.90;;;;;;5067035;28;20225;-63
2021/06/21 11:04:35;;;;;;;10.88;2.70;;;28.50;99.90;;;;;;5052406;28;20187;-63
2021/06/21 11:07:19;;;;;;;8.98;2.38;;;28.60;99.90;;;;;;5053027;28;20682;-56
2021/06/21 11:09:57;;;;;;;7.70;2.13;;;28.40;99.90;;;;;;5052320;28;20263;-58
2021/06/21 11:12:27;;;;;;;6.07;2.22;;;28.30;99.90;;;;;;5053265;28;20175;-57
2021/06/21 11:15:08;;;;;;;9.00;2.22;;;28.50;99.90;;;;;;5055196;28;20689;-63
2021/06/21 11:17:43;;;;;;;7.43;2.55;;;28.60;99.90;;;;;;5056713;28;20280;-63
2021/06/21 11:20:39;;;;;;;10.35;2.70;;;28.50;99.90;;;;;;5057014;28;20623;-60
2021/06/21 11:23:08;;;;;;;9.38;2.80;;;28.20;99.90;;;;;;5054487;28;20689;-63
2021/06/21 11:25:39;;;;;;;7.60;2.40;;;28.10;99.90;;;;;;5057043;28;20258;-60
2021/06/21 11:28:05;;;;;;;8.63;2.50;;;28.00;99.90;;;;;;5056964;28;20659;-63
2021/06/21 11:30:31;;;;;;;8.32;2.45;;;28.10;99.90;;;;;;5057311;28;20163;-63
2021/06/21 11:33:02;;;;;;;10.38;2.58;;;28.00;99.90;;;;;;5057260;28;20191;-57
2021/06/21 11:35:56;;;;;;;6.20;2.40;;;27.90;99.90;;;;;;5056763;28;20171;-60
2021/06/21 11:38:35;;;;;;;7.60;2.72;;;28.00;99.90;;;;;;5054666;28;20697;-64
2021/06/21 11:41:23;;;;;;;8.07;2.40;;;28.10;99.90;;;;;;5057015;28;20639;-63
2021/06/21 11:43:55;;;;;;;10.23;2.70;;;28.40;99.90;;;;;;5055660;28;20195;-58
2021/06/21 11:46:37;;;;;;;6.80;2.15;;;28.50;99.90;;;;;;5056218;28;20207;-63
2021/06/21 11:49:11;;;;;;;7.50;2.15;;;28.60;99.90;;;;;;5058022;28;20241;-63
2021/06/21 11:51:37;;;;;;;10.00;2.58;;;29.00;99.90;;;;;;5055250;28;20179;-61
2021/06/21 11:54:04;;;;;;;7.15;2.53;;;29.30;99.80;;;;;;5056539;28;20172;-63
2021/06/21 11:56:30;;;;;;;8.60;2.50;;;29.30;99.60;;;;;;5056501;28;20172;-64
2021/06/21 11:58:57;;;;;;;10.85;2.60;;;29.40;99.90;;;;;;5056423;28;20172;-59
2021/06/21 12:01:27;;;;;;;8.43;2.65;;;29.40;99.40;;;;;;5056114;28;20183;-58
2021/06/21 12:04:01;;;;;;;12.27;3.13;;;29.40;99.90;;;;;;5055077;28;20195;-62
2021/06/21 12:06:28;;;;;;;7.82;2.33;;;29.70;99.50;;;;;;5057624;28;20207;-57
2021/06/21 12:08:54;;;;;;;10.00;2.58;;;29.90;99.40;;;;;;5055197;28;20171;-64
2021/06/21 12:11:27;;;;;;;7.72;2.20;;;30.50;99.70;;;;;;5055710;28;20501;-61
2021/06/21 12:14:02;;;;;;;10.48;2.33;;;30.80;98.80;;;;;;5055965;28;20312;-61
2021/06/21 12:16:30;;;;;;;8.93;2.60;;;31.00;97.80;;;;;;5054884;28;20230;-64
2021/06/21 12:18:58;;;;;;;8.52;2.72;;;31.20;97.90;;;;;;5056031;28;20632;-63
2021/06/21 12:21:38;;;;;;;7.05;2.25;;;31.30;97.40;;;;;;5055411;28;20248;-60
2021/06/21 12:24:36;;;;;;;8.30;2.58;;;31.10;95.50;;;;;;5056691;28;20175;-60
2021/06/21 12:27:05;;;;;;;8.80;2.35;;;30.90;96.70;;;;;;5031138;28;20232;-63
2021/06/21 12:29:32;;;;;;;9.35;2.53;;;30.40;97.20;;;;;;5033415;28;20587;-63
2021/06/21 12:32:02;;;;;;;5.25;2.17;;;30.00;97.60;;;;;;5033337;28;20214;-60
2021/06/21 12:34:46;;;;;;;8.40;2.63;;;29.90;97.40;;;;;;5032821;28;20176;-59
2021/06/21 12:37:32;;;;;;;7.90;2.35;;;30.10;98.30;;;;;;5033228;28;20485;-64
2021/06/21 12:40:13;;;;;;;10.50;2.67;;;30.20;98.30;;;;;;5034250;28;20250;-64
2021/06/21 12:42:39;;;;;;;9.18;2.65;;;30.10;97.80;;;;;;5031980;28;20207;-63
2021/06/21 12:45:24;;;;;;;6.80;2.60;;;30.00;99.10;;;;;;5033171;28;20176;-64
2021/06/21 12:47:55;;;;;;;7.13;2.15;;;30.20;97.60;;;;;;5032979;28;20208;-63
2021/06/21 12:50:23;;;;;;;10.18;2.53;;;30.00;97.70;;;;;;5032486;28;20187;-63